CheckWX is a tool to help pilots better visualize weather data.  It is not intended as a substitute for an official pre-flight weather briefing.

16:31:15 UTC

KTVF METAR
Thief River Falls Regional Airport
Thief River Falls, Minnesota, USA
Current

35 mins ago

KTVF 181556Z AUTO 17016G21KT 10SM CLR 12/06 A2948 RMK AO2 SLP987 T01220061
Observed
Oct-18 @ 15:56 UTC
Wind
  • 170° at 16 KTS
  • Gusting to 21 KTS
Visibility
10 SM
Flight Rules
VFR
Cloud Levels
  • Clear skies
Temperature
12°C / 54°F
Dewpoint
C / 43°F
Humidity
67%
Altimeter
29.48" Hg
Pressure
998.32 hPa
Previous

2 hours ago

KTVF 181456Z AUTO 15013G18KT 10SM CLR 10/06 A2949 RMK AO2 SLP992 T01000056 56012
Observed
Oct-18 @ 14:56 UTC
Wind
  • 150° at 13 KTS
  • Gusting to 18 KTS
Visibility
10 SM
Flight Rules
VFR
Cloud Levels
  • Clear skies
Temperature
10°C / 50°F
Dewpoint
C / 43°F
Humidity
76%
Altimeter
29.49" Hg
Pressure
998.62 hPa
Previous

3 hours ago

KTVF 181356Z AUTO 14011KT 10SM CLR 08/04 A2950 RMK AO2 SLP996 T00780044
Observed
Oct-18 @ 13:56 UTC
Wind
  • 140° at 11 KTS
Visibility
10 SM
Flight Rules
VFR
Cloud Levels
  • Clear skies
Temperature
C / 46°F
Dewpoint
C / 39°F
Humidity
76%
Altimeter
29.5" Hg
Pressure
999.02 hPa